sensor_id;sensor_type;location;lat;lon;timestamp;pressure;altitude;pressure_sealevel;temperature;humidity
81397;BME280;70852;49.908;8.126;2024-02-14T00:01:57;100630.63;;;6.67;76.23
81397;BME280;70852;49.908;8.126;2024-02-14T00:04:22;100622.81;;;6.79;76.35
81397;BME280;70852;49.908;8.126;2024-02-14T00:06:50;100623.69;;;6.75;74.79
81397;BME280;70852;49.908;8.126;2024-02-14T00:09:17;100612.72;;;6.75;75.95
81397;BME280;70852;49.908;8.126;2024-02-14T00:11:45;100611.34;;;6.72;76.24
81397;BME280;70852;49.908;8.126;2024-02-14T00:14:10;100604.19;;;6.76;75.78
81397;BME280;70852;49.908;8.126;2024-02-14T00:16:36;100592.16;;;6.72;76.43
81397;BME280;70852;49.908;8.126;2024-02-14T00:19:03;100596.81;;;6.72;76.33
81397;BME280;70852;49.908;8.126;2024-02-14T00:21:30;100600.38;;;6.72;77.09
81397;BME280;70852;49.908;8.126;2024-02-14T00:23:57;100595.91;;;6.81;76.67
81397;BME280;70852;49.908;8.126;2024-02-14T00:26:24;100604.97;;;6.82;76.09
81397;BME280;70852;49.908;8.126;2024-02-14T00:28:52;100596.44;;;6.83;75.47
81397;BME280;70852;49.908;8.126;2024-02-14T00:31:17;100600.56;;;6.86;75.10
81397;BME280;70852;49.908;8.126;2024-02-14T00:33:45;100605.50;;;6.84;72.89
81397;BME280;70852;49.908;8.126;2024-02-14T00:36:11;100600.78;;;6.89;74.18
81397;BME280;70852;49.908;8.126;2024-02-14T00:38:41;100593.13;;;6.86;75.31
81397;BME280;70852;49.908;8.126;2024-02-14T00:41:12;100597.19;;;6.94;72.96
81397;BME280;70852;49.908;8.126;2024-02-14T00:43:38;100598.81;;;6.95;72.97
81397;BME280;70852;49.908;8.126;2024-02-14T00:46:03;100593.88;;;6.97;73.18
81397;BME280;70852;49.908;8.126;2024-02-14T00:48:28;100589.50;;;6.96;74.18
81397;BME280;70852;49.908;8.126;2024-02-14T00:50:54;100579.31;;;6.96;73.86
81397;BME280;70852;49.908;8.126;2024-02-14T00:53:19;100566.97;;;6.94;73.51
81397;BME280;70852;49.908;8.126;2024-02-14T00:55:47;100575.19;;;6.99;73.54
81397;BME280;70852;49.908;8.126;2024-02-14T00:58:14;100572.91;;;7.06;73.50
81397;BME280;70852;49.908;8.126;2024-02-14T01:00:42;100578.50;;;6.96;73.24
81397;BME280;70852;49.908;8.126;2024-02-14T01:03:10;100578.00;;;6.89;73.28
81397;BME280;70852;49.908;8.126;2024-02-14T01:05:38;100565.69;;;6.86;72.92
81397;BME280;70852;49.908;8.126;2024-02-14T01:08:04;100573.31;;;6.89;73.12
81397;BME280;70852;49.908;8.126;2024-02-14T01:10:29;100567.63;;;6.86;73.50
81397;BME280;70852;49.908;8.126;2024-02-14T01:12:58;100565.19;;;6.79;73.57
81397;BME280;70852;49.908;8.126;2024-02-14T01:15:26;100567.00;;;6.89;73.21
81397;BME280;70852;49.908;8.126;2024-02-14T01:17:51;100569.16;;;6.97;73.77
81397;BME280;70852;49.908;8.126;2024-02-14T01:20:16;100568.38;;;6.91;73.77
81397;BME280;70852;49.908;8.126;2024-02-14T01:22:44;100578.59;;;6.86;73.49
81397;BME280;70852;49.908;8.126;2024-02-14T01:25:13;100568.16;;;6.88;73.64
81397;BME280;70852;49.908;8.126;2024-02-14T01:27:39;100570.28;;;6.91;72.96
81397;BME280;70852;49.908;8.126;2024-02-14T01:30:04;100570.56;;;6.89;73.53
81397;BME280;70852;49.908;8.126;2024-02-14T01:32:30;100569.25;;;6.87;73.75
81397;BME280;70852;49.908;8.126;2024-02-14T01:34:56;100561.00;;;6.87;73.71
81397;BME280;70852;49.908;8.126;2024-02-14T01:37:21;100572.22;;;6.90;74.12
81397;BME280;70852;49.908;8.126;2024-02-14T01:39:49;100564.53;;;6.92;75.12
81397;BME280;70852;49.908;8.126;2024-02-14T01:42:14;100577.16;;;6.93;75.28
81397;BME280;70852;49.908;8.126;2024-02-14T01:44:44;100568.97;;;6.88;75.03
81397;BME280;70852;49.908;8.126;2024-02-14T01:47:13;100562.41;;;6.84;75.50
81397;BME280;70852;49.908;8.126;2024-02-14T01:49:41;100563.31;;;6.75;75.73
81397;BME280;70852;49.908;8.126;2024-02-14T01:52:09;100572.13;;;6.72;76.52
81397;BME280;70852;49.908;8.126;2024-02-14T01:54:35;100561.66;;;6.74;76.16
81397;BME280;70852;49.908;8.126;2024-02-14T01:57:00;100560.88;;;6.68;76.97
81397;BME280;70852;49.908;8.126;2024-02-14T01:59:29;100553.47;;;6.69;76.35
81397;BME280;70852;49.908;8.126;2024-02-14T02:01:55;100544.38;;;6.73;76.86
81397;BME280;70852;49.908;8.126;2024-02-14T02:04:20;100541.09;;;6.71;77.28
81397;BME280;70852;49.908;8.126;2024-02-14T02:06:46;100535.59;;;6.71;76.66
81397;BME280;70852;49.908;8.126;2024-02-14T02:09:12;100529.59;;;6.69;76.95
81397;BME280;70852;49.908;8.126;2024-02-14T02:11:48;100526.63;;;6.66;76.94
81397;BME280;70852;49.908;8.126;2024-02-14T02:14:18;100524.97;;;6.65;76.60
81397;BME280;70852;49.908;8.126;2024-02-14T02:16:44;100531.00;;;6.67;75.91
81397;BME280;70852;49.908;8.126;2024-02-14T02:19:13;100531.19;;;6.75;76.53
81397;BME280;70852;49.908;8.126;2024-02-14T02:21:41;100529.28;;;6.76;76.60
81397;BME280;70852;49.908;8.126;2024-02-14T02:24:08;100537.50;;;6.76;76.23
81397;BME280;70852;49.908;8.126;2024-02-14T02:26:33;100532.56;;;6.78;76.67
81397;BME280;70852;49.908;8.126;2024-02-14T02:28:58;100533.34;;;6.78;76.54
81397;BME280;70852;49.908;8.126;2024-02-14T02:31:27;100534.13;;;6.84;76.89
81397;BME280;70852;49.908;8.126;2024-02-14T02:33:57;100540.16;;;6.86;76.77
81397;BME280;70852;49.908;8.126;2024-02-14T02:36:25;100542.91;;;6.86;76.67
81397;BME280;70852;49.908;8.126;2024-02-14T02:38:57;100552.72;;;6.92;76.76
81397;BME280;70852;49.908;8.126;2024-02-14T02:41:23;100544.38;;;7.02;75.74
81397;BME280;70852;49.908;8.126;2024-02-14T02:43:52;100548.53;;;6.99;75.73
81397;BME280;70852;49.908;8.126;2024-02-14T02:46:19;100550.22;;;6.95;76.18
81397;BME280;70852;49.908;8.126;2024-02-14T02:48:52;100542.81;;;6.96;75.65
81397;BME280;70852;49.908;8.126;2024-02-14T02:51:23;100541.69;;;6.97;76.76
81397;BME280;70852;49.908;8.126;2024-02-14T02:53:49;100550.97;;;7.01;76.57
81397;BME280;70852;49.908;8.126;2024-02-14T02:56:14;100543.84;;;7.00;76.96
81397;BME280;70852;49.908;8.126;2024-02-14T02:58:40;100544.09;;;7.04;76.81
81397;BME280;70852;49.908;8.126;2024-02-14T03:01:10;100542.16;;;7.04;77.21
81397;BME280;70852;49.908;8.126;2024-02-14T03:03:37;100544.06;;;7.09;76.53
81397;BME280;70852;49.908;8.126;2024-02-14T03:06:04;100543.56;;;7.02;75.43
81397;BME280;70852;49.908;8.126;2024-02-14T03:08:29;100547.09;;;7.07;75.82
81397;BME280;70852;49.908;8.126;2024-02-14T03:11:01;100544.97;;;6.99;75.63
81397;BME280;70852;49.908;8.126;2024-02-14T03:13:29;100550.97;;;7.01;75.23
81397;BME280;70852;49.908;8.126;2024-02-14T03:15:55;100550.50;;;6.94;75.20
81397;BME280;70852;49.908;8.126;2024-02-14T03:18:26;100557.34;;;6.96;74.53
81397;BME280;70852;49.908;8.126;2024-02-14T03:20:53;100550.47;;;6.99;75.48
81397;BME280;70852;49.908;8.126;2024-02-14T03:23:19;100549.97;;;6.92;75.48
81397;BME280;70852;49.908;8.126;2024-02-14T03:25:44;100549.88;;;7.02;75.21
81397;BME280;70852;49.908;8.126;2024-02-14T03:28:12;100549.13;;;6.96;74.99
81397;BME280;70852;49.908;8.126;2024-02-14T03:30:38;100550.94;;;7.06;75.15
81397;BME280;70852;49.908;8.126;2024-02-14T03:33:05;100550.88;;;7.11;74.91
81397;BME280;70852;49.908;8.126;2024-02-14T03:35:33;100546.84;;;7.04;74.66
81397;BME280;70852;49.908;8.126;2024-02-14T03:38:02;100548.91;;;7.17;74.32
81397;BME280;70852;49.908;8.126;2024-02-14T03:40:29;100544.06;;;7.09;74.57
81397;BME280;70852;49.908;8.126;2024-02-14T03:42:56;100547.66;;;7.04;74.66
81397;BME280;70852;49.908;8.126;2024-02-14T03:45:22;100549.03;;;7.07;74.72
81397;BME280;70852;49.908;8.126;2024-02-14T03:47:47;100547.03;;;7.12;74.75
81397;BME280;70852;49.908;8.126;2024-02-14T03:50:12;100547.00;;;7.17;74.74
81397;BME280;70852;49.908;8.126;2024-02-14T03:52:38;100553.34;;;7.13;74.33
81397;BME280;70852;49.908;8.126;2024-02-14T03:55:05;100558.19;;;7.21;74.07
81397;BME280;70852;49.908;8.126;2024-02-14T03:57:30;100576.63;;;7.20;74.51
81397;BME280;70852;49.908;8.126;2024-02-14T03:59:57;100570.31;;;7.20;74.50
81397;BME280;70852;49.908;8.126;2024-02-14T04:02:22;100568.41;;;7.20;74.62
81397;BME280;70852;49.908;8.126;2024-02-14T04:04:53;100567.63;;;7.15;74.80
81397;BME280;70852;49.908;8.126;2024-02-14T04:07:18;100577.50;;;7.16;74.91
81397;BME280;70852;49.908;8.126;2024-02-14T04:09:43;100569.28;;;7.11;75.19
81397;BME280;70852;49.908;8.126;2024-02-14T04:12:09;100576.97;;;7.14;75.04
81397;BME280;70852;49.908;8.126;2024-02-14T04:14:35;100574.50;;;7.12;75.55
81397;BME280;70852;49.908;8.126;2024-02-14T04:17:01;100583.09;;;7.06;75.55
81397;BME280;70852;49.908;8.126;2024-02-14T04:19:29;100591.22;;;7.16;75.98
81397;BME280;70852;49.908;8.126;2024-02-14T04:21:57;100584.25;;;7.28;75.38
81397;BME280;70852;49.908;8.126;2024-02-14T04:24:27;100581.22;;;7.30;74.76
81397;BME280;70852;49.908;8.126;2024-02-14T04:26:53;100580.84;;;7.37;74.95
81397;BME280;70852;49.908;8.126;2024-02-14T04:29:20;100583.31;;;7.38;75.56
81397;BME280;70852;49.908;8.126;2024-02-14T04:31:45;100582.50;;;7.38;75.95
81397;BME280;70852;49.908;8.126;2024-02-14T04:34:11;100584.19;;;7.33;75.84
81397;BME280;70852;49.908;8.126;2024-02-14T04:36:38;100586.63;;;7.35;76.24
81397;BME280;70852;49.908;8.126;2024-02-14T04:39:05;100589.97;;;7.32;75.78
81397;BME280;70852;49.908;8.126;2024-02-14T04:41:33;100591.03;;;7.36;76.03
81397;BME280;70852;49.908;8.126;2024-02-14T04:44:03;100582.78;;;7.36;76.17
81397;BME280;70852;49.908;8.126;2024-02-14T04:46:29;100572.66;;;7.31;76.41
81397;BME280;70852;49.908;8.126;2024-02-14T04:48:54;100574.81;;;7.34;76.81
81397;BME280;70852;49.908;8.126;2024-02-14T04:51:22;100573.47;;;7.32;76.49
81397;BME280;70852;49.908;8.126;2024-02-14T04:53:49;100568.28;;;7.30;76.31
81397;BME280;70852;49.908;8.126;2024-02-14T04:56:15;100570.72;;;7.32;76.53
81397;BME280;70852;49.908;8.126;2024-02-14T04:58:47;100567.56;;;7.44;76.31
81397;BME280;70852;49.908;8.126;2024-02-14T05:01:12;100566.25;;;7.41;76.59
81397;BME280;70852;49.908;8.126;2024-02-14T05:03:38;100557.41;;;7.44;76.60
81397;BME280;70852;49.908;8.126;2024-02-14T05:06:03;100555.06;;;7.32;77.12
81397;BME280;70852;49.908;8.126;2024-02-14T05:08:30;100557.22;;;7.35;77.16
81397;BME280;70852;49.908;8.126;2024-02-14T05:10:58;100565.75;;;7.34;77.16
81397;BME280;70852;49.908;8.126;2024-02-14T05:13:24;100566.28;;;7.36;77.28
81397;BME280;70852;49.908;8.126;2024-02-14T05:15:51;100578.03;;;7.42;77.09
81397;BME280;70852;49.908;8.126;2024-02-14T05:18:16;100581.09;;;7.40;77.46
81397;BME280;70852;49.908;8.126;2024-02-14T05:20:44;100577.00;;;7.38;77.39
81397;BME280;70852;49.908;8.126;2024-02-14T05:23:09;100572.06;;;7.34;77.71
81397;BME280;70852;49.908;8.126;2024-02-14T05:25:37;100575.41;;;7.31;77.69
81397;BME280;70852;49.908;8.126;2024-02-14T05:28:05;100570.44;;;7.33;77.76
81397;BME280;70852;49.908;8.126;2024-02-14T05:30:33;100579.22;;;7.35;77.18
81397;BME280;70852;49.908;8.126;2024-02-14T05:33:04;100573.47;;;7.32;77.63
81397;BME280;70852;49.908;8.126;2024-02-14T05:35:29;100580.28;;;7.40;77.73
81397;BME280;70852;49.908;8.126;2024-02-14T05:37:54;100581.91;;;7.41;77.67
81397;BME280;70852;49.908;8.126;2024-02-14T05:40:20;100580.75;;;7.47;77.39
81397;BME280;70852;49.908;8.126;2024-02-14T05:42:48;100591.38;;;7.53;77.30
81397;BME280;70852;49.908;8.126;2024-02-14T05:45:13;100592.81;;;7.51;77.94
81397;BME280;70852;49.908;8.126;2024-02-14T05:47:39;100587.22;;;7.56;77.77
81397;BME280;70852;49.908;8.126;2024-02-14T05:50:05;100591.91;;;7.55;77.58
81397;BME280;70852;49.908;8.126;2024-02-14T05:52:31;100592.72;;;7.56;77.55
81397;BME280;70852;49.908;8.126;2024-02-14T05:54:56;100588.84;;;7.62;77.86
81397;BME280;70852;49.908;8.126;2024-02-14T05:57:21;100587.00;;;7.52;78.09
81397;BME280;70852;49.908;8.126;2024-02-14T05:59:46;100581.75;;;7.56;78.37
81397;BME280;70852;49.908;8.126;2024-02-14T06:02:12;100583.66;;;7.55;78.26
81397;BME280;70852;49.908;8.126;2024-02-14T06:04:37;100584.59;;;7.46;78.83
81397;BME280;70852;49.908;8.126;2024-02-14T06:07:05;100588.69;;;7.48;79.04
81397;BME280;70852;49.908;8.126;2024-02-14T06:09:34;100582.13;;;7.44;79.32
81397;BME280;70852;49.908;8.126;2024-02-14T06:12:01;100576.94;;;7.43;79.59
81397;BME280;70852;49.908;8.126;2024-02-14T06:14:31;100583.78;;;7.45;79.43
81397;BME280;70852;49.908;8.126;2024-02-14T06:16:59;100576.19;;;7.37;80.19
81397;BME280;70852;49.908;8.126;2024-02-14T06:19:26;100593.63;;;7.51;79.68
81397;BME280;70852;49.908;8.126;2024-02-14T06:21:51;100594.84;;;7.40;79.91
81397;BME280;70852;49.908;8.126;2024-02-14T06:24:19;100592.38;;;7.39;80.14
81397;BME280;70852;49.908;8.126;2024-02-14T06:26:45;100598.34;;;7.46;80.05
81397;BME280;70852;49.908;8.126;2024-02-14T06:29:13;100598.88;;;7.48;79.98
81397;BME280;70852;49.908;8.126;2024-02-14T06:31:38;100596.69;;;7.45;80.48
81397;BME280;70852;49.908;8.126;2024-02-14T06:34:04;100590.38;;;7.44;80.62
81397;BME280;70852;49.908;8.126;2024-02-14T06:36:31;100605.75;;;7.45;80.45
81397;BME280;70852;49.908;8.126;2024-02-14T06:38:59;100601.63;;;7.48;80.44
81397;BME280;70852;49.908;8.126;2024-02-14T06:41:24;100597.78;;;7.49;80.92
81397;BME280;70852;49.908;8.126;2024-02-14T06:43:50;100597.47;;;7.50;80.78
81397;BME280;70852;49.908;8.126;2024-02-14T06:46:15;100600.03;;;7.42;81.69
81397;BME280;70852;49.908;8.126;2024-02-14T06:48:43;100604.47;;;7.38;81.77
81397;BME280;70852;49.908;8.126;2024-02-14T06:51:10;100617.09;;;7.39;82.19
81397;BME280;70852;49.908;8.126;2024-02-14T06:53:36;100616.22;;;7.43;81.91
81397;BME280;70852;49.908;8.126;2024-02-14T06:56:06;100622.50;;;7.49;81.79
81397;BME280;70852;49.908;8.126;2024-02-14T06:58:36;100619.47;;;7.50;81.99
81397;BME280;70852;49.908;8.126;2024-02-14T07:01:02;100619.19;;;7.52;82.29
81397;BME280;70852;49.908;8.126;2024-02-14T07:03:29;100618.94;;;7.48;82.05
81397;BME280;70852;49.908;8.126;2024-02-14T07:05:55;100623.78;;;7.56;82.00
81397;BME280;70852;49.908;8.126;2024-02-14T07:08:20;100626.78;;;7.60;81.88
81397;BME280;70852;49.908;8.126;2024-02-14T07:10:45;100631.38;;;7.64;81.52
81397;BME280;70852;49.908;8.126;2024-02-14T07:13:13;100634.50;;;7.58;81.78
81397;BME280;70852;49.908;8.126;2024-02-14T07:15:39;100643.81;;;7.62;82.03
81397;BME280;70852;49.908;8.126;2024-02-14T07:18:09;100651.16;;;7.66;81.86
81397;BME280;70852;49.908;8.126;2024-02-14T07:20:35;100645.09;;;7.69;81.95
81397;BME280;70852;49.908;8.126;2024-02-14T07:23:02;100643.75;;;7.67;82.11
81397;BME280;70852;49.908;8.126;2024-02-14T07:25:33;100648.13;;;7.68;82.21
81397;BME280;70852;49.908;8.126;2024-02-14T07:27:58;100644.63;;;7.62;82.34
81397;BME280;70852;49.908;8.126;2024-02-14T07:30:25;100641.56;;;7.64;82.30
81397;BME280;70852;49.908;8.126;2024-02-14T07:32:51;100635.78;;;7.65;82.36
81397;BME280;70852;49.908;8.126;2024-02-14T07:35:16;100643.44;;;7.68;82.13
81397;BME280;70852;49.908;8.126;2024-02-14T07:37:42;100646.44;;;7.72;82.07
81397;BME280;70852;49.908;8.126;2024-02-14T07:40:10;100646.44;;;7.72;82.38
81397;BME280;70852;49.908;8.126;2024-02-14T07:42:40;100650.59;;;7.69;82.54
81397;BME280;70852;49.908;8.126;2024-02-14T07:45:06;100650.34;;;7.66;82.37
81397;BME280;70852;49.908;8.126;2024-02-14T07:47:34;100653.06;;;7.71;82.66
81397;BME280;70852;49.908;8.126;2024-02-14T07:49:59;100658.78;;;7.75;82.51
81397;BME280;70852;49.908;8.126;2024-02-14T07:52:27;100658.38;;;7.86;82.72
81397;BME280;70852;49.908;8.126;2024-02-14T07:54:53;100656.44;;;7.87;82.76
81397;BME280;70852;49.908;8.126;2024-02-14T07:57:27;100659.44;;;7.90;82.71
81397;BME280;70852;49.908;8.126;2024-02-14T07:59:55;100667.22;;;7.83;82.75
81397;BME280;70852;49.908;8.126;2024-02-14T08:02:23;100663.28;;;7.89;82.99
81397;BME280;70852;49.908;8.126;2024-02-14T08:04:48;100672.91;;;7.92;82.91
81397;BME280;70852;49.908;8.126;2024-02-14T08:07:15;100675.28;;;7.98;83.00
81397;BME280;70852;49.908;8.126;2024-02-14T08:09:41;100673.31;;;8.04;82.54
81397;BME280;70852;49.908;8.126;2024-02-14T08:12:06;100674.72;;;8.01;83.01
81397;BME280;70852;49.908;8.126;2024-02-14T08:14:35;100666.38;;;8.06;82.74
81397;BME280;70852;49.908;8.126;2024-02-14T08:17:01;100674.00;;;8.15;82.74
81397;BME280;70852;49.908;8.126;2024-02-14T08:19:29;100672.28;;;8.19;82.61
81397;BME280;70852;49.908;8.126;2024-02-14T08:21:54;100679.19;;;8.16;83.06
81397;BME280;70852;49.908;8.126;2024-02-14T08:24:25;100671.63;;;8.27;82.89
81397;BME280;70852;49.908;8.126;2024-02-14T08:26:54;100673.88;;;8.25;82.83
81397;BME280;70852;49.908;8.126;2024-02-14T08:29:20;100671.19;;;8.20;83.38
81397;BME280;70852;49.908;8.126;2024-02-14T08:31:46;100665.09;;;8.23;83.08
81397;BME280;70852;49.908;8.126;2024-02-14T08:34:14;100666.13;;;8.27;83.03
81397;BME280;70852;49.908;8.126;2024-02-14T08:36:42;100670.44;;;8.14;83.61
81397;BME280;70852;49.908;8.126;2024-02-14T08:39:10;100678.63;;;8.19;83.77
81397;BME280;70852;49.908;8.126;2024-02-14T08:41:37;100690.44;;;8.20;83.86
81397;BME280;70852;49.908;8.126;2024-02-14T08:44:05;100687.78;;;8.15;84.17
81397;BME280;70852;49.908;8.126;2024-02-14T08:46:31;100683.59;;;8.17;84.23
81397;BME280;70852;49.908;8.126;2024-02-14T08:49:01;100679.38;;;8.25;83.93
81397;BME280;70852;49.908;8.126;2024-02-14T08:51:36;100679.88;;;8.32;83.75
81397;BME280;70852;49.908;8.126;2024-02-14T08:54:04;100684.13;;;8.43;83.55
81397;BME280;70852;49.908;8.126;2024-02-14T08:56:31;100683.78;;;8.26;83.94
81397;BME280;70852;49.908;8.126;2024-02-14T08:59:02;100685.09;;;8.28;84.26
81397;BME280;70852;49.908;8.126;2024-02-14T09:01:29;100686.44;;;8.31;84.54
81397;BME280;70852;49.908;8.126;2024-02-14T09:03:55;100692.97;;;8.40;84.21
81397;BME280;70852;49.908;8.126;2024-02-14T09:06:24;100693.13;;;8.49;83.87
81397;BME280;70852;49.908;8.126;2024-02-14T09:08:51;100688.81;;;8.42;84.28
81397;BME280;70852;49.908;8.126;2024-02-14T09:11:17;100690.69;;;8.47;83.67
81397;BME280;70852;49.908;8.126;2024-02-14T09:13:43;100687.03;;;8.52;83.87
81397;BME280;70852;49.908;8.126;2024-02-14T09:16:09;100688.91;;;8.56;83.50
81397;BME280;70852;49.908;8.126;2024-02-14T09:18:35;100683.69;;;8.55;83.38
81397;BME280;70852;49.908;8.126;2024-02-14T09:21:01;100692.69;;;8.60;83.37
81397;BME280;70852;49.908;8.126;2024-02-14T09:23:28;100692.56;;;8.70;83.34
81397;BME280;70852;49.908;8.126;2024-02-14T09:25:54;100694.72;;;8.73;83.18
81397;BME280;70852;49.908;8.126;2024-02-14T09:28:21;100697.34;;;8.84;82.50
81397;BME280;70852;49.908;8.126;2024-02-14T09:30:50;100692.88;;;8.88;82.29
81397;BME280;70852;49.908;8.126;2024-02-14T09:33:17;100687.13;;;8.84;82.37
81397;BME280;70852;49.908;8.126;2024-02-14T09:35:43;100698.38;;;9.06;82.00
81397;BME280;70852;49.908;8.126;2024-02-14T09:38:13;100685.78;;;9.19;81.69
81397;BME280;70852;49.908;8.126;2024-02-14T09:40:43;100695.28;;;9.27;80.50
81397;BME280;70852;49.908;8.126;2024-02-14T09:43:22;100694.53;;;9.40;80.21
81397;BME280;70852;49.908;8.126;2024-02-14T09:45:52;100695.47;;;9.49;80.19
81397;BME280;70852;49.908;8.126;2024-02-14T09:48:19;100688.97;;;9.59;79.82
81397;BME280;70852;49.908;8.126;2024-02-14T09:50:48;100693.59;;;9.77;79.12
81397;BME280;70852;49.908;8.126;2024-02-14T09:53:14;100698.72;;;9.83;78.84
81397;BME280;70852;49.908;8.126;2024-02-14T09:55:40;100700.75;;;9.78;79.05
81397;BME280;70852;49.908;8.126;2024-02-14T09:58:09;100690.81;;;9.77;79.29
81397;BME280;70852;49.908;8.126;2024-02-14T10:00:35;100695.03;;;9.88;79.31
81397;BME280;70852;49.908;8.126;2024-02-14T10:03:00;100693.38;;;9.87;79.23
81397;BME280;70852;49.908;8.126;2024-02-14T10:05:26;100701.03;;;9.63;79.98
81397;BME280;70852;49.908;8.126;2024-02-14T10:07:56;100698.69;;;9.70;79.29
81397;BME280;70852;49.908;8.126;2024-02-14T10:10:22;100701.50;;;9.51;80.07
81397;BME280;70852;49.908;8.126;2024-02-14T10:12:47;100701.31;;;9.61;80.00
81397;BME280;70852;49.908;8.126;2024-02-14T10:15:12;100700.28;;;9.57;79.49
81397;BME280;70852;49.908;8.126;2024-02-14T10:17:41;100711.41;;;9.52;79.93
81397;BME280;70852;49.908;8.126;2024-02-14T10:20:07;100714.38;;;9.55;80.56
81397;BME280;70852;49.908;8.126;2024-02-14T10:22:35;100708.47;;;9.62;80.72
81397;BME280;70852;49.908;8.126;2024-02-14T10:25:04;100711.72;;;9.64;80.03
81397;BME280;70852;49.908;8.126;2024-02-14T10:27:42;100718.28;;;9.68;79.87
81397;BME280;70852;49.908;8.126;2024-02-14T10:30:08;100725.16;;;9.71;79.94
81397;BME280;70852;49.908;8.126;2024-02-14T10:32:40;100719.53;;;9.76;80.56
81397;BME280;70852;49.908;8.126;2024-02-14T10:35:13;100726.50;;;9.87;79.88
81397;BME280;70852;49.908;8.126;2024-02-14T10:37:39;100733.66;;;9.88;80.14
81397;BME280;70852;49.908;8.126;2024-02-14T10:40:07;100732.72;;;9.79;80.24
81397;BME280;70852;49.908;8.126;2024-02-14T10:42:34;100733.75;;;9.83;79.93
81397;BME280;70852;49.908;8.126;2024-02-14T10:45:01;100724.84;;;9.86;80.35
81397;BME280;70852;49.908;8.126;2024-02-14T10:47:36;100729.47;;;9.90;80.22
81397;BME280;70852;49.908;8.126;2024-02-14T10:50:07;100738.16;;;9.98;79.65
81397;BME280;70852;49.908;8.126;2024-02-14T10:52:35;100725.19;;;9.98;79.91
81397;BME280;70852;49.908;8.126;2024-02-14T10:55:05;100730.94;;;10.02;79.22
81397;BME280;70852;49.908;8.126;2024-02-14T10:57:33;100723.72;;;10.19;78.43
81397;BME280;70852;49.908;8.126;2024-02-14T11:00:06;100730.66;;;10.31;78.81
81397;BME280;70852;49.908;8.126;2024-02-14T11:02:34;100721.47;;;10.35;78.63
81397;BME280;70852;49.908;8.126;2024-02-14T11:05:02;100716.34;;;10.42;78.39
81397;BME280;70852;49.908;8.126;2024-02-14T11:07:28;100717.78;;;10.40;78.57
81397;BME280;70852;49.908;8.126;2024-02-14T11:10:06;100709.19;;;10.41;78.19
81397;BME280;70852;49.908;8.126;2024-02-14T11:12:35;100703.34;;;10.56;77.46
81397;BME280;70852;49.908;8.126;2024-02-14T11:15:09;100716.44;;;10.51;78.42
81397;BME280;70852;49.908;8.126;2024-02-14T11:17:36;100709.81;;;10.38;78.55
81397;BME280;70852;49.908;8.126;2024-02-14T11:20:32;100706.41;;;10.55;78.22
81397;BME280;70852;49.908;8.126;2024-02-14T11:23:00;100706.59;;;10.72;77.69
81397;BME280;70852;49.908;8.126;2024-02-14T11:25:29;100715.50;;;10.69;78.48
81397;BME280;70852;49.908;8.126;2024-02-14T11:28:01;100711.34;;;10.58;79.12
81397;BME280;70852;49.908;8.126;2024-02-14T11:30:41;100718.88;;;10.66;78.98
81397;BME280;70852;49.908;8.126;2024-02-14T11:33:18;100717.78;;;10.53;78.93
81397;BME280;70852;49.908;8.126;2024-02-14T11:35:46;100717.47;;;10.55;78.91
81397;BME280;70852;49.908;8.126;2024-02-14T11:38:15;100719.94;;;10.43;79.26
81397;BME280;70852;49.908;8.126;2024-02-14T11:40:43;100719.00;;;10.47;79.70
81397;BME280;70852;49.908;8.126;2024-02-14T11:43:17;100720.03;;;10.51;79.79
81397;BME280;70852;49.908;8.126;2024-02-14T11:45:43;100724.41;;;10.52;78.79
81397;BME280;70852;49.908;8.126;2024-02-14T11:48:15;100715.53;;;10.55;78.53
81397;BME280;70852;49.908;8.126;2024-02-14T11:50:43;100710.09;;;10.64;78.80
81397;BME280;70852;49.908;8.126;2024-02-14T11:53:11;100719.59;;;10.72;79.24
81397;BME280;70852;49.908;8.126;2024-02-14T11:55:39;100716.34;;;10.70;78.39
81397;BME280;70852;49.908;8.126;2024-02-14T11:58:08;100708.34;;;10.68;78.87
81397;BME280;70852;49.908;8.126;2024-02-14T12:00:42;100705.47;;;10.59;78.80
81397;BME280;70852;49.908;8.126;2024-02-14T12:03:23;100705.38;;;10.51;79.51
81397;BME280;70852;49.908;8.126;2024-02-14T12:05:52;100712.34;;;10.62;79.90
81397;BME280;70852;49.908;8.126;2024-02-14T12:08:18;100706.81;;;10.62;79.80
81397;BME280;70852;49.908;8.126;2024-02-14T12:10:46;100696.72;;;10.57;80.17
81397;BME280;70852;49.908;8.126;2024-02-14T12:13:16;100698.34;;;10.58;80.52
81397;BME280;70852;49.908;8.126;2024-02-14T12:15:48;100702.00;;;10.68;80.34
81397;BME280;70852;49.908;8.126;2024-02-14T12:18:15;100705.97;;;10.75;79.87
81397;BME280;70852;49.908;8.126;2024-02-14T12:20:41;100699.75;;;10.70;80.32
81397;BME280;70852;49.908;8.126;2024-02-14T12:23:08;100701.56;;;10.74;80.07
81397;BME280;70852;49.908;8.126;2024-02-14T12:25:39;100699.53;;;10.80;80.24
81397;BME280;70852;49.908;8.126;2024-02-14T12:28:13;100695.72;;;10.89;79.89
81397;BME280;70852;49.908;8.126;2024-02-14T12:30:45;100699.91;;;10.87;79.89
81397;BME280;70852;49.908;8.126;2024-02-14T12:33:15;100696.44;;;10.81;80.70
81397;BME280;70852;49.908;8.126;2024-02-14T12:35:50;100694.00;;;10.80;80.62
81397;BME280;70852;49.908;8.126;2024-02-14T12:38:20;100698.50;;;10.76;80.99
81397;BME280;70852;49.908;8.126;2024-02-14T12:40:49;100700.53;;;10.70;81.01
81397;BME280;70852;49.908;8.126;2024-02-14T12:43:17;100692.81;;;10.58;81.53
81397;BME280;70852;49.908;8.126;2024-02-14T12:45:42;100693.22;;;10.52;81.41
81397;BME280;70852;49.908;8.126;2024-02-14T12:48:11;100705.22;;;10.47;81.74
81397;BME280;70852;49.908;8.126;2024-02-14T12:50:40;100696.19;;;10.55;82.43
81397;BME280;70852;49.908;8.126;2024-02-14T12:53:15;100702.53;;;10.56;83.11
81397;BME280;70852;49.908;8.126;2024-02-14T12:55:41;100697.31;;;10.54;83.45
81397;BME280;70852;49.908;8.126;2024-02-14T12:58:06;100701.63;;;10.47;83.53
81397;BME280;70852;49.908;8.126;2024-02-14T13:00:35;100700.59;;;10.43;84.15